createdAt,value
2017-03-12T00:07:58.366Z,6
2017-03-12T00:17:58.358Z,5
2017-03-12T00:27:58.324Z,7
2017-03-12T00:37:58.403Z,6
2017-03-12T00:47:58.303Z,6
2017-03-12T00:57:58.355Z,8
2017-03-12T01:07:58.387Z,8
2017-03-12T01:17:58.475Z,9
2017-03-12T01:27:58.558Z,8
2017-03-12T01:37:58.506Z,8
2017-03-12T01:47:58.461Z,8
2017-03-12T01:57:58.558Z,9
2017-03-12T02:07:58.473Z,6
2017-03-12T02:17:58.460Z,7
2017-03-12T02:27:58.580Z,7
2017-03-12T02:37:58.405Z,7
2017-03-12T02:47:58.589Z,6
2017-03-12T02:57:58.374Z,7
2017-03-12T03:07:58.497Z,6
2017-03-12T03:17:58.390Z,6
2017-03-12T03:27:58.611Z,6
2017-03-12T03:37:58.539Z,6
2017-03-12T03:47:58.623Z,6
2017-03-12T03:57:58.398Z,6
2017-03-12T04:08:00.690Z,7
2017-03-12T04:17:58.445Z,7
2017-03-12T04:27:58.490Z,7
2017-03-12T04:37:58.447Z,7
2017-03-12T04:47:58.519Z,7
2017-03-12T04:57:58.601Z,6
2017-03-12T05:07:58.540Z,8
2017-03-12T05:17:58.627Z,7
2017-03-12T05:27:58.503Z,8
2017-03-12T05:37:58.512Z,8
2017-03-12T05:47:58.690Z,7
2017-03-12T05:57:58.614Z,9
2017-03-12T06:07:58.719Z,9
2017-03-12T06:17:58.592Z,8
2017-03-12T06:27:58.510Z,7
2017-03-12T06:37:58.579Z,8
2017-03-12T06:47:58.609Z,9
2017-03-12T06:57:58.885Z,8
2017-03-12T07:07:58.688Z,8
2017-03-12T07:17:58.774Z,9
2017-03-12T07:27:58.602Z,7
2017-03-12T07:37:58.628Z,8
2017-03-12T07:47:58.658Z,8
2017-03-12T07:57:59.132Z,7
2017-03-12T08:07:58.625Z,8
2017-03-12T08:17:58.624Z,9
2017-03-12T08:27:58.681Z,9
2017-03-12T08:37:58.597Z,8
2017-03-12T08:47:58.704Z,8
2017-03-12T08:57:58.705Z,9
2017-03-12T09:07:58.728Z,8
2017-03-12T09:17:58.718Z,8
2017-03-12T09:27:58.783Z,7
2017-03-12T10:07:58.867Z,8
2017-03-12T10:17:58.837Z,8
2017-03-12T10:27:58.965Z,7
2017-03-12T10:37:58.865Z,8
2017-03-12T10:47:58.790Z,7
2017-03-12T10:57:58.803Z,8
2017-03-12T11:07:58.821Z,9
2017-03-12T11:17:58.833Z,6
2017-03-12T11:27:58.830Z,6
2017-03-12T11:37:58.925Z,5
2017-03-12T11:47:58.769Z,6
2017-03-12T11:57:58.861Z,5
2017-03-12T12:07:58.808Z,6
2017-03-12T12:17:58.913Z,6
2017-03-12T12:27:58.894Z,6
2017-03-12T12:38:20.129Z,6
2017-03-12T12:57:59.005Z,5
2017-03-12T13:07:58.978Z,5
2017-03-12T13:18:00.542Z,5
2017-03-12T13:27:59.110Z,5
2017-03-12T13:37:59.256Z,6
2017-03-12T13:47:59.003Z,5
2017-03-12T13:57:59.201Z,5
2017-03-12T14:07:58.982Z,4
2017-03-12T14:17:59.319Z,5
2017-03-12T14:27:59.084Z,5
2017-03-12T14:37:59.562Z,5
2017-03-12T14:47:59.166Z,5
2017-03-12T14:57:59.151Z,5
2017-03-12T15:07:59.122Z,5
2017-03-12T15:17:59.790Z,4
2017-03-12T15:28:12.321Z,4
2017-03-12T15:37:59.089Z,5
2017-03-12T15:47:59.148Z,4
2017-03-12T15:57:59.283Z,4
2017-03-12T16:07:59.449Z,5
2017-03-12T16:17:59.192Z,5
2017-03-12T16:27:59.273Z,6
2017-03-12T16:37:59.146Z,6
2017-03-12T16:47:59.197Z,6
2017-03-12T16:57:59.340Z,6
2017-03-12T17:08:01.173Z,6
2017-03-12T17:17:59.270Z,6
2017-03-12T17:27:59.242Z,7
2017-03-12T17:37:59.837Z,6
2017-03-12T17:47:59.794Z,7
2017-03-12T17:57:59.234Z,8
2017-03-12T18:07:59.201Z,7
2017-03-12T18:17:59.333Z,6
2017-03-12T18:27:59.280Z,8
2017-03-12T18:37:59.392Z,7
2017-03-12T18:47:59.216Z,7
2017-03-12T18:57:59.861Z,7
2017-03-12T19:07:59.303Z,7
2017-03-12T19:17:59.717Z,7
2017-03-12T19:27:59.436Z,7
2017-03-12T19:38:03.600Z,8
2017-03-12T19:47:59.413Z,8
2017-03-12T19:58:00.032Z,7
2017-03-12T20:08:00.462Z,7
2017-03-12T20:17:59.442Z,7
2017-03-12T20:27:59.560Z,7
2017-03-12T20:37:59.499Z,7
2017-03-12T20:47:59.556Z,7
2017-03-12T20:57:59.577Z,8
2017-03-12T21:07:59.435Z,9
2017-03-12T21:17:59.589Z,9
2017-03-12T21:27:59.454Z,9
2017-03-12T21:37:59.577Z,9
2017-03-12T21:47:59.472Z,9
2017-03-12T21:58:15.618Z,9
2017-03-12T22:08:10.963Z,10
2017-03-12T22:17:59.483Z,10
2017-03-12T22:27:59.456Z,10
2017-03-12T22:37:59.552Z,10
2017-03-12T22:47:59.595Z,9
2017-03-12T22:58:00.950Z,11
2017-03-12T23:07:59.664Z,11
2017-03-12T23:18:09.241Z,11
2017-03-12T23:27:59.658Z,11
2017-03-12T23:37:59.466Z,11
2017-03-12T23:47:59.566Z,12
2017-03-12T23:57:59.471Z,11
